Tiempo atmosférico en la estación meteorológica de Serradilla, Cáceres (410 m.)



Fecha
DESCASC
Temp. máxima en grados centígrados (hora)
DESCASC
Temp. mínima en grados centígrados (hora)
DESCASC
Temp. media en grados centígrados
DESCASC
Racha de viento máxima en m/sg (hora)
DESCASC
Velocidad máxima media en intervalos de 10 minutos(hora)
DESCASC
Precipitaciones diarias en mm
DESCASC
Precipitaciones de 00:00 a 06:00 en mm
DESCASC
Precipitaciones de 06:00 a 12:00 en mm
DESCASC
Precipitaciones de 12:00 a 18:00 en mm
DESCASC
Precipitaciones de 18:00 a 24:00 en mm
DESCASC
13-06-2019 27.2 (18:50) 9.2 (07:00) 18.2 10 (16:00) 5.56 (17:10) 0 0 0 0 0
12-06-2019 27.5 (17:30) 13.7 (07:00) 20.6 9.44 (16:50) 4.72 (11:00) 0 0 0 0 0
11-06-2019 23.4 (17:20) 14.3 (07:20) 18.8 18.61 (06:10) 10.83 (06:10) 0 0 0 0 0
10-06-2019 27 (17:50) 14.5 (07:00) 20.8 12.22 (03:00) 7.5 (03:00) 0 0 0 0 0
09-06-2019 27.3 (17:20) 10.1 (00:00) 18.7 9.17 (13:20) 5.83 (00:50) 0 0 0 0 0
08-06-2019 28.2 (16:30) 12 (00:00) 20.1 9.72 (01:40) 5.83 (00:20) 0 0 0 0 0
07-06-2019 22.3 (17:50) 8.3 (00:00) 15.3 9.17 (23:59) 5.28 (23:59) 0 0 0 0 0
06-06-2019 23.1 (16:20) 8.1 (00:00) 15.6 14.17 (21:30) 8.06 (21:00) 0.6 0 0 0 0.6
05-06-2019 22.4 (17:10) 11.2 (00:00) 16.8 11.94 (10:00) 6.67 (02:20) 0 0 0 0 0
04-06-2019 26.1 (16:10) 14.7 (00:00) 20.4 11.39 (19:00) 6.39 (17:00) 0 0 0 0 0
03-06-2019 34 (16:50) 17.7 (00:00) 25.9 12.5 (16:50) 6.94 (17:20) 0 0 0 0 0
02-06-2019 36 (17:40) 18.5 (00:00) 27.3 11.67 (17:30) 6.11 (23:00) 0 0 0 0 0
01-06-2019 35.3 (17:40) 19 (00:00) 27.1 6.39 (12:40) 4.17 (10:40) 0 0 0 0 0
31-05-2019 34.1 (17:50) 18 (00:00) 26 10 (06:40) 6.11 (06:50) 0 0 0 0 0
30-05-2019 31.7 (18:30) 18.1 (00:00) 24.9 13.33 (10:30) 7.5 (10:50) 0 0 0 0 0
29-05-2019 29.7 (18:50) 15.7 (00:00) 22.7 12.22 (04:20) 7.78 (09:30) 0 0 0 0 0
28-05-2019 28.9 (16:10) 18.9 (00:00) 23.9 13.61 (18:50) 8.61 (18:10) 0 0 0 0 0
27-05-2019 31.5 (17:00) 19.9 (00:00) 25.7 10.83 (23:10) 5.83 (20:50) 0 0 0 0 0
26-05-2019 29.2 (16:40) 15.4 (00:00) 22.3 12.22 (18:00) 6.39 (17:10) 0 0 0 0 0
25-05-2019 27.7 (17:30) 13.2 (00:00) 20.5 10.83 (20:40) 6.39 (20:20) 0 0 0 0 0
24-05-2019 27.5 (17:50) 15.5 (00:00) 21.5 15.83 (07:20) 10 (07:30) 0 0 0 0 0
23-05-2019 29.7 (18:10) 14.1 (00:00) 21.9 12.5 (23:50) 7.5 (23:50) 0 0 0 0 0
22-05-2019 30 (17:10) 12.1 (00:00) 21.1 8.61 (10:10) 5.28 (10:10) 0 0 0 0 0
21-05-2019 27.3 (17:30) 14.2 (07:20) 20.7 8.89 (05:40) 5.83 (07:30) 0 0 0 0 0
20-05-2019 24.4 (18:10) 10.8 (07:50) 17.6 9.44 (22:20) 5.56 (22:20) 0 0 0 0 0
19-05-2019 22.6 (18:00) 10.4 (00:00) 16.5 11.39 (05:50) 7.22 (05:20) 0 0 0 0 0
18-05-2019 19.9 (17:00) 9.3 (00:00) 14.6 13.89 (07:10) 7.5 (01:20) 0 0 0 0 0
17-05-2019 20.2 (18:00) 9.4 (00:00) 14.8 12.5 (12:00) 7.22 (12:40) 0 0 0 0 0

Gráficas

Temp. máximas Temp. mínimas Temp. medias Precipitaciones Rachas de viento máximas Velocidades máximas media en intervalos de 10 minutos

Datos horarios

Fecha y hora oficial Temperatura (ºC) Velocidad del viento (km/h) Dirección del viento Racha (km/h) Dirección de racha Precipitación (mm) Presión (hPa) Tendencia (hPa) Humedad (%)
2019-06-15 23:00:00 21.3 4 Oeste 5 Oeste 0 -- -- 27
2019-06-15 22:00:00 22.2 4 Noroeste 8 Oeste 0 -- -- 25
2019-06-15 21:00:00 24.2 6 Noroeste 13 Noroeste 0 -- -- 22
2019-06-15 20:00:00 24.6 5 Oeste 20 Noroeste 0 -- -- 19
2019-06-15 19:00:00 25.7 6 Noroeste 23 Oeste 0 -- -- 21
2019-06-15 18:00:00 26.2 8 Noroeste 21 Sur 0 -- -- 23
2019-06-15 17:00:00 25.1 5 Norte 17 Oeste 0 -- -- 24
2019-06-15 16:00:00 24.9 9 Sudoeste 20 Oeste 0 -- -- 26
2019-06-15 15:00:00 23.9 7 Noroeste 22 Oeste 0 -- -- 28
2019-06-15 14:00:00 23 6 Norte 19 Oeste 0 -- -- 30
2019-06-15 13:00:00 21.4 10 Oeste 19 Norte 0 -- -- 32
2019-06-15 12:00:00 20 9 Noroeste 22 Noroeste 0 -- -- 37
2019-06-15 11:00:00 18.2 10 Noroeste 18 Noroeste 0 -- -- 44
2019-06-15 10:00:00 16.4 9 Noroeste 17 Noroeste 0 -- -- 51
2019-06-15 09:00:00 14.2 8 Noroeste 26 Norte 0 -- -- 58
2019-06-15 08:00:00 12.8 13 Noroeste 22 Noroeste 0 -- -- 63
2019-06-15 07:00:00 10.5 4 Sudoeste 9 Noroeste 0 -- -- 71
2019-06-15 06:00:00 10.9 4 Oeste 10 Sudoeste 0 -- -- 71
2019-06-15 05:00:00 11.3 4 Noroeste 14 Oeste 0 -- -- 70
2019-06-15 04:00:00 12.7 9 Oeste 23 Noroeste 0 -- -- 65
2019-06-15 03:00:00 13.2 10 Oeste 22 Oeste 0 -- -- 62
2019-06-15 02:00:00 13.6 10 Oeste 22 Oeste 0 -- -- 59
2019-06-15 01:00:00 14.3 11 Oeste 22 Oeste 0 -- -- 58
2019-06-15 00:00:00 14.6 5 Oeste 18 Oeste 0 -- -- 57
2019-06-14 23:00:00 16 9 Oeste 25 Oeste 0 -- -- 53
2019-06-14 22:00:00 17.2 13 Oeste 41 Sudoeste 0 -- -- 45
2019-06-14 21:00:00 18.8 18 Sudoeste 38 Sudoeste 0 -- -- 39
2019-06-14 20:00:00 20 20 Sudoeste 34 Sudoeste 0 -- -- 35
2019-06-14 19:00:00 21 23 Sudoeste 37 Sudoeste 0 -- -- 32
2019-06-14 18:00:00 22.3 24 Sudoeste 47 Sudoeste 0 -- -- 30
2019-06-14 17:00:00 22.8 18 Oeste 36 Oeste 0 -- -- 29
2019-06-14 16:00:00 22.5 18 Sudoeste 36 Sudoeste 0 -- -- 30
2019-06-14 15:00:00 21.6 19 Sudoeste 35 Sudoeste 0 -- -- 33
2019-06-14 14:00:00 20 19 Sudoeste 33 Sudoeste 0 -- -- 40
2019-06-14 13:00:00 18.9 15 Sudoeste 27 Sudoeste 0 -- -- 43
2019-06-14 12:00:00 17.5 14 Sudoeste 27 Sudoeste 0 -- -- 45
2019-06-14 11:00:00 16.2 10 Sur 25 Sudoeste 0 -- -- 50
2019-06-14 10:00:00 14.2 12 Sudoeste 23 Sudoeste 0 -- -- 58
2019-06-14 09:00:00 11.8 12 Sudoeste 21 Sudoeste 0 -- -- 67
2019-06-14 08:00:00 10.3 4 Oeste 9 Oeste 0 -- -- 74
2019-06-14 07:00:00 9.3 3 Sudoeste 7 Sudoeste 0 -- -- 77
2019-06-14 06:00:00 10.3 5 Oeste 12 Sudoeste 0 -- -- 72
2019-06-14 05:00:00 10.9 8 Oeste 17 Oeste 0 -- -- 68
2019-06-14 04:00:00 11.9 8 Oeste 14 Oeste 0 -- -- 61
2019-06-14 03:00:00 13.2 6 Oeste 18 Oeste 0 -- -- 55
2019-06-14 02:00:00 15.1 13 Sudoeste 26 Oeste 0 -- -- 50
2019-06-14 01:00:00 16.9 16 Sudoeste 31 Oeste 0 -- -- 44
2019-06-14 00:00:00 18.8 15 Sudoeste 21 Sudoeste 0 -- -- 38
2019-06-13 23:00:00 20.6 7 Oeste 12 Oeste 0 -- -- 27
2019-06-13 22:00:00 23 6 Oeste 13 Oeste 0 -- -- 24
2019-06-13 21:00:00 25.5 8 Oeste 19 Sudoeste 0 -- -- 20
2019-06-13 20:00:00 25.7 8 Noroeste 23 Oeste 0 -- -- 21
2019-06-13 19:00:00 27 6 Oeste 33 Sur 0 -- -- 19
2019-06-13 18:00:00 26.8 12 Sudoeste 34 Sudoeste 0 -- -- 17
2019-06-13 17:00:00 26.7 12 Sur 31 Sudoeste 0 -- -- 19
2019-06-13 16:00:00 25.7 15 Sudoeste 36 Sudoeste 0 -- -- 18
2019-06-13 15:00:00 24.4 14 Sudoeste 27 Sudoeste 0 -- -- 19
2019-06-13 14:00:00 23.3 9 Sur 28 Sudoeste 0 -- -- 20
2019-06-13 13:00:00 22.1 9 Sur 26 Sudoeste 0 -- -- 25
2019-06-13 12:00:00 19.7 12 Sudoeste 23 Sur 0 -- -- 31
2019-06-13 11:00:00 17.3 11 Sudoeste 20 Sudoeste 0 -- -- 41
2019-06-13 10:00:00 14.5 8 Sudoeste 13 Sur 0 -- -- 54
2019-06-13 09:00:00 11.6 4 Oeste 10 Sudoeste 0 -- -- 64
2019-06-13 08:00:00 10 4 Sudoeste 7 Oeste 0 -- -- 69
2019-06-13 07:00:00 9.2 5 Oeste 10 Oeste 0 -- -- 72
2019-06-13 06:00:00 9.8 4 Oeste 10 Sudoeste 0 -- -- 67
2019-06-13 05:00:00 10.9 7 Oeste 14 Oeste 0 -- -- 63
2019-06-13 04:00:00 12.6 8 Oeste 13 Oeste 0 -- -- 58
2019-06-13 03:00:00 13.8 7 Sudoeste 13 Sudoeste 0 -- -- 54
2019-06-13 02:00:00 15.8 11 Sudoeste 26 Sudoeste 0 -- -- 49
2019-06-13 01:00:00 18.2 14 Oeste 27 Sudoeste 0 -- -- 42
2019-06-13 00:00:00 19.2 15 Sudoeste 24 Sudoeste 0 -- -- 40
2019-06-12 23:00:00 20.5 9 Oeste 17 Oeste 0 -- -- 27
2019-06-12 22:00:00 21.9 8 Noroeste 18 Noroeste 0 -- -- 19
2019-06-12 21:00:00 25 8 Oeste 21 Oeste 0 -- -- 16
2019-06-12 20:00:00 25.7 8 Sudoeste 25 Sudeste 0 -- -- 15
2019-06-12 19:00:00 27 9 Sudoeste 28 Sudoeste 0 -- -- 12
2019-06-12 18:00:00 27.1 17 Sudoeste 29 Sudoeste 0 -- -- 14
2019-06-12 17:00:00 27.3 14 Sudoeste 34 Sudoeste 0 -- -- 14
2019-06-12 16:00:00 26.4 9 Sudoeste 27 Oeste 0 -- -- 15
2019-06-12 15:00:00 25.3 10 Sudoeste 28 Sudoeste 0 -- -- 15
2019-06-12 14:00:00 24.8 9 Sudoeste 23 Sudoeste 0 -- -- 18
2019-06-12 13:00:00 23.8 5 Sur 22 Sudoeste 0 -- -- 20
2019-06-12 12:00:00 22 9 Este 25 Este 0 -- -- 24
2019-06-12 11:00:00 19.3 17 Este 26 Este 0 -- -- 28
2019-06-12 10:00:00 17.5 13 Nordeste 24 Este 0 -- -- 31
2019-06-12 09:00:00 15.6 9 Nordeste 18 Norte 0 -- -- 34
2019-06-12 08:00:00 14 8 Norte 19 Norte 0 -- -- 37
2019-06-12 07:00:00 13.7 7 Nordeste 11 Nordeste 0 -- -- 36
2019-06-12 06:00:00 14 6 Norte 16 Norte 0 -- -- 35
2019-06-12 05:00:00 14.2 8 Noroeste 23 Noroeste 0 -- -- 36
2019-06-12 04:00:00 15 13 Noroeste 23 Norte 0 -- -- 34
2019-06-12 03:00:00 16.1 9 Norte 23 Noroeste 0 -- -- 29
2019-06-12 02:00:00 16.5 6 Norte 15 Norte 0 -- -- 27
2019-06-12 01:00:00 17 6 Norte 22 Nordeste 0 -- -- 26
2019-06-12 00:00:00 18.7 15 Norte 27 Norte 0 -- -- 24
2019-06-11 23:00:00 19.3 13 Norte 27 Noroeste 0 -- -- 23
2019-06-11 22:00:00 20.1 12 Norte 28 Norte 0 -- -- 21
2019-06-11 21:00:00 21.6 14 Norte 33 Nordeste 0 -- -- 19
2019-06-11 20:00:00 22.6 12 Norte 32 Norte 0 -- -- 19
2019-06-11 19:00:00 23.1 18 Norte 46 Norte 0 -- -- 17
2019-06-11 18:00:00 23.2 22 Norte 43 Norte 0 -- -- 18
2019-06-11 17:00:00 23.1 24 Norte 48 Norte 0 -- -- 19
2019-06-11 16:00:00 22.8 22 Norte 48 Noroeste 0 -- -- 22
2019-06-11 15:00:00 22.1 29 Norte 54 Noroeste 0 -- -- 25
2019-06-11 14:00:00 21.9 28 Norte 53 Noroeste 0 -- -- 26
2019-06-11 13:00:00 21.1 27 Norte 50 Norte 0 -- -- 30
2019-06-11 12:00:00 20 31 Noroeste 51 Norte 0 -- -- 36
2019-06-11 11:00:00 19.1 32 Norte 54 Noroeste 0 -- -- 41
2019-06-11 10:00:00 17.5 32 Noroeste 58 Noroeste 0 -- -- 50
2019-06-11 09:00:00 15.6 22 Noroeste 53 Noroeste 0 -- -- 56
2019-06-11 08:00:00 14.7 32 Noroeste 58 Noroeste 0 -- -- 58
2019-06-11 07:00:00 14.4 36 Noroeste 67 Noroeste 0 -- -- 59
2019-06-11 06:00:00 15.1 38 Noroeste 57 Noroeste 0 -- -- 57
2019-06-11 05:00:00 15.5 27 Noroeste 50 Noroeste 0 -- -- 57
2019-06-11 04:00:00 16.1 15 Noroeste 33 Oeste 0 -- -- 55
2019-06-11 03:00:00 16.4 17 Noroeste 28 Norte 0 -- -- 52
2019-06-11 02:00:00 17.2 15 Noroeste 30 Noroeste 0 -- -- 49
2019-06-11 01:00:00 18.1 18 Noroeste 33 Norte 0 -- -- 47
2019-06-11 00:00:00 19.4 24 Noroeste 38 Noroeste 0 -- -- 42
2019-06-10 23:00:00 21.1 23 Noroeste 35 Noroeste 0 -- -- 37
2019-06-10 22:00:00 22.8 13 Noroeste 25 Noroeste 0 -- -- 29
2019-06-10 21:00:00 24.4 12 Noroeste 24 Noroeste 0 -- -- 25
2019-06-10 20:00:00 25.3 14 Noroeste 28 Oeste 0 -- -- 21
2019-06-10 19:00:00 26.7 17 Oeste 31 Oeste 0 -- -- 18
2019-06-10 18:00:00 26.9 13 Oeste 31 Oeste 0 -- -- 18
2019-06-10 17:00:00 26.8 13 Noroeste 29 Oeste 0 -- -- 17
2019-06-10 16:00:00 25.6 13 Oeste 31 Noroeste 0 -- -- 24
2019-06-10 15:00:00 25.2 10 Noroeste 31 Noroeste 0 -- -- 25
2019-06-10 14:00:00 24.1 16 Noroeste 30 Noroeste 0 -- -- 31
2019-06-10 13:00:00 23.1 17 Noroeste 34 Noroeste 0 -- -- 34
2019-06-10 12:00:00 21.9 21 Norte 40 Noroeste 0 -- -- 40
2019-06-10 11:00:00 20.3 19 Noroeste 34 Noroeste 0 -- -- 45
2019-06-10 10:00:00 17.6 19 Noroeste 31 Noroeste 0 -- -- 52
2019-06-10 09:00:00 16.1 21 Noroeste 39 Noroeste 0 -- -- 57
2019-06-10 08:00:00 14.9 18 Noroeste 34 Noroeste 0 -- -- 60
2019-06-10 07:00:00 14.5 19 Noroeste 36 Noroeste 0 -- -- 60
2019-06-10 06:00:00 15.1 21 Noroeste 39 Noroeste 0 -- -- 58
2019-06-10 05:00:00 15.5 24 Noroeste 39 Noroeste 0 -- -- 56
2019-06-10 04:00:00 15.9 24 Noroeste 39 Noroeste 0 -- -- 55
2019-06-10 03:00:00 16.6 27 Noroeste 44 Norte 0 -- -- 53
2019-06-10 02:00:00 17.3 22 Noroeste 40 Noroeste 0 -- -- 50
2019-06-10 01:00:00 18 23 Noroeste 38 Noroeste 0 -- -- 48
2019-06-10 00:00:00 18.8 19 Noroeste 32 Noroeste 0 -- -- 46
2019-06-09 23:00:00 19.9 15 Noroeste 29 Noroeste 0 -- -- 43
2019-06-09 22:00:00 21.1 10 Oeste 30 Oeste 0 -- -- 37
2019-06-09 21:00:00 22.8 16 Oeste 31 Oeste 0 -- -- 30
2019-06-09 20:00:00 24.6 16 Oeste 33 Oeste 0 -- -- 26
2019-06-09 19:00:00 26.2 16 Oeste 33 Sudoeste 0 -- -- 23
2019-06-09 18:00:00 26.3 14 Sudoeste 33 Noroeste 0 -- -- 23
2019-06-09 17:00:00 26.3 13 Sudoeste 27 Noroeste 0 -- -- 23
2019-06-09 16:00:00 26.3 12 Oeste 31 Oeste 0 -- -- 25
2019-06-09 15:00:00 25 13 Noroeste 26 Oeste 0 -- -- 30
2019-06-09 14:00:00 24.4 10 Oeste 33 Noroeste 0 -- -- 30
2019-06-09 13:00:00 23.1 7 Oeste 27 Sudoeste 0 -- -- 35
2019-06-09 12:00:00 21.4 8 Sudoeste 17 Sudoeste 0 -- -- 39
2019-06-09 11:00:00 18.9 8 Sudoeste 17 Sudoeste 0 -- -- 45
2019-06-09 10:00:00 15.7 9 Sudoeste 16 Sudoeste 0 -- -- 50
2019-06-09 09:00:00 12.6 10 Sudoeste 15 Sudoeste 0 -- -- 59
2019-06-09 08:00:00 10.7 6 Oeste 15 Oeste 0 -- -- 67
2019-06-09 07:00:00 10.3 6 Oeste 18 Oeste 0 -- -- 70
2019-06-09 06:00:00 11.4 11 Sudoeste 17 Oeste 0 -- -- 67
2019-06-09 05:00:00 12.7 5 Sudoeste 8 Sudoeste 0 -- -- 63
2019-06-09 04:00:00 13.7 5 Oeste 14 Sudoeste 0 -- -- 61
2019-06-09 03:00:00 16 9 Sudoeste 28 Sudoeste 0 -- -- 55
2019-06-09 02:00:00 17.9 16 Sudoeste 31 Sudoeste 0 -- -- 48
2019-06-09 01:00:00 19 20 Sudoeste 31 Sudoeste 0 -- -- 48
2019-06-09 00:00:00 20.5 19 Sudoeste 30 Oeste 0 -- -- 45
2019-06-08 23:00:00 21.6 11 Sudoeste 23 Noroeste 0 -- -- 24
2019-06-08 22:00:00 23.3 15 Noroeste 23 Noroeste 0 -- -- 22
2019-06-08 21:00:00 25.1 6 Oeste 21 Oeste 0 -- -- 18
2019-06-08 20:00:00 26.3 12 Oeste 21 Sudoeste 0 -- -- 16
2019-06-08 19:00:00 26.8 10 Sudoeste 26 Sudoeste 0 -- -- 16
2019-06-08 18:00:00 27.8 12 Sudoeste 24 Sur 0 -- -- 15
2019-06-08 17:00:00 27.8 10 Sur 33 Sur 0 -- -- 15
2019-06-08 16:00:00 27.6 10 Sur 23 Sudeste 0 -- -- 16
2019-06-08 15:00:00 27.2 8 Sudeste 23 Sudoeste 0 -- -- 18
2019-06-08 14:00:00 26.2 8 Sur 25 Este 0 -- -- 20
2019-06-08 13:00:00 25 5 Este 22 Sudeste 0 -- -- 22
2019-06-08 12:00:00 22.5 13 Este 29 Este 0 -- -- 28
2019-06-08 11:00:00 20.3 19 Este 31 Este 0 -- -- 32
2019-06-08 10:00:00 18.2 13 Nordeste 22 Nordeste 0 -- -- 37
2019-06-08 09:00:00 15.8 8 Nordeste 16 Norte 0 -- -- 44
2019-06-08 08:00:00 13.9 4 Nordeste 10 Nordeste 0 -- -- 49
2019-06-08 07:00:00 12 4 Nordeste 6 Noroeste 0 -- -- 53
2019-06-08 06:00:00 12.4 3 Noroeste 9 Norte 0 -- -- 52
2019-06-08 05:00:00 13.5 4 Este 25 Noroeste 0 -- -- 49
2019-06-08 04:00:00 13.8 14 Noroeste 28 Noroeste 0 -- -- 48
2019-06-08 03:00:00 14.8 16 Norte 31 Norte 0 -- -- 43
2019-06-08 02:00:00 15.8 20 Noroeste 35 Noroeste 0 -- -- 40
2019-06-08 01:00:00 16.7 19 Noroeste 32 Noroeste 0 -- -- 38
2019-06-08 00:00:00 17.2 19 Noroeste 33 Noroeste 0 -- -- 38
2019-06-07 23:00:00 17.7 15 Noroeste 23 Noroeste 0 -- -- 37
2019-06-07 22:00:00 18.2 9 Noroeste 20 Noroeste 0 -- -- 35
2019-06-07 21:00:00 20.3 6 Oeste 22 Oeste 0 -- -- 30
2019-06-07 20:00:00 20.8 11 Noroeste 24 Oeste 0 -- -- 29
2019-06-07 19:00:00 21.6 12 Noroeste 24 Noroeste 0 -- -- 28
2019-06-07 18:00:00 21.8 12 Oeste 29 Noroeste 0 -- -- 27
2019-06-07 17:00:00 21.3 9 Noroeste 28 Oeste 0 -- -- 30
2019-06-07 16:00:00 21.3 11 Oeste 32 Oeste 0 -- -- 30
2019-06-07 15:00:00 20.1 13 Noroeste 30 Noroeste 0 -- -- 33
2019-06-07 14:00:00 19.1 13 Oeste 30 Oeste 0 -- -- 35
2019-06-07 13:00:00 17.7 14 Noroeste 28 Noroeste 0 -- -- 39
2019-06-07 12:00:00 16.7 11 Norte 24 Norte 0 -- -- 46
2019-06-07 11:00:00 15.1 15 Noroeste 27 Norte 0 -- -- 49
2019-06-07 10:00:00 13.4 11 Oeste 21 Oeste 0 -- -- 61
2019-06-07 09:00:00 11.4 7 Oeste 19 Oeste 0 -- -- 80
2019-06-07 08:00:00 9 10 Sudoeste 15 Oeste 0 -- -- 91
2019-06-07 07:00:00 8.6 9 Sudoeste 15 Oeste 0 -- -- 93
2019-06-07 06:00:00 8.5 8 Oeste 15 Sudoeste 0 -- -- 94
2019-06-07 05:00:00 9.1 8 Sudoeste 18 Oeste 0 -- -- 93
2019-06-07 04:00:00 9.9 12 Sudoeste 22 Sudoeste 0 -- -- 92
2019-06-07 03:00:00 11 13 Sudoeste 26 Sudoeste 0 -- -- 88
2019-06-07 02:00:00 12.1 15 Sudoeste 26 Sudoeste 0 -- -- 87
2019-06-07 01:00:00 12.6 13 Sudoeste 26 Sudoeste 0 -- -- 90
2019-06-07 00:00:00 13.3 12 Sudoeste 40 Sudoeste 0.4 -- -- 89
2019-06-06 23:00:00 14.9 23 Sudoeste 43 Sudoeste 0.2 -- -- 83
2019-06-06 22:00:00 18.6 26 Sudoeste 51 Sudoeste 0 -- -- 54
2019-06-06 21:00:00 19.9 29 Sudoeste 49 Sudoeste 0 -- -- 45
2019-06-06 20:00:00 21.3 24 Sudoeste 45 Sudoeste 0 -- -- 40
2019-06-06 19:00:00 22.5 22 Sudoeste 47 Sudoeste 0 -- -- 35
2019-06-06 18:00:00 23 27 Sur 45 Sur 0 -- -- 33
2019-06-06 17:00:00 22.3 24 Sur 44 Sur 0 -- -- 34
2019-06-06 16:00:00 22.7 20 Sudoeste 36 Sudoeste 0 -- -- 31
2019-06-06 15:00:00 21.2 17 Sudoeste 35 Sur 0 -- -- 34
2019-06-06 14:00:00 20.1 17 Sur 34 Sudoeste 0 -- -- 34
2019-06-06 13:00:00 19.4 12 Sudoeste 28 Sur 0 -- -- 34
2019-06-06 12:00:00 17.4 11 Sur 26 Sur 0 -- -- 42
2019-06-06 11:00:00 15.5 8 Sudoeste 17 Sudoeste 0 -- -- 51
2019-06-06 10:00:00 13.5 7 Sudoeste 16 Oeste 0 -- -- 58
2019-06-06 09:00:00 11 3 Sur 10 Sur 0 -- -- 68
2019-06-06 08:00:00 9.1 2 Oeste 12 Sudoeste 0 -- -- 72
2019-06-06 07:00:00 8.2 5 Oeste 12 Sudoeste 0 -- -- 72
2019-06-06 06:00:00 8.8 6 Sudoeste 14 Oeste 0 -- -- 69
2019-06-06 05:00:00 9.9 8 Oeste 17 Sudoeste 0 -- -- 65
2019-06-06 04:00:00 11.1 9 Sudoeste 17 Oeste 0 -- -- 61
2019-06-06 03:00:00 12.9 8 Sudoeste 19 Sudoeste 0 -- -- 55
2019-06-06 02:00:00 12.4 5 Oeste 13 Sudoeste 0 -- -- 55
2019-06-06 01:00:00 14 9 Oeste 24 Noroeste 0 -- -- 49
2019-06-06 00:00:00 14.8 11 Noroeste 31 Noroeste 0 -- -- 44
2019-06-05 23:00:00 15.8 14 Noroeste 31 Oeste 0 -- -- 41
2019-06-05 22:00:00 17.6 14 Oeste 29 Oeste 0 -- -- 36
2019-06-05 21:00:00 18.9 13 Oeste 30 Sudoeste 0 -- -- 31
2019-06-05 20:00:00 20.5 15 Oeste 28 Oeste 0 -- -- 28
2019-06-05 19:00:00 21.8 15 Oeste 29 Oeste 0 -- -- 28
2019-06-05 18:00:00 22 10 Oeste -- -- -- -- -- 28
2019-06-05 17:00:00 22.3 14 Oeste 33 Oeste 0 -- -- 26
2019-06-05 16:00:00 21.3 16 Noroeste 33 Oeste 0 -- -- 29
2019-06-05 15:00:00 20.7 14 Oeste 32 Noroeste 0 -- -- 32
2019-06-05 14:00:00 20.2 18 Noroeste 35 Oeste 0 -- -- 34
2019-06-05 13:00:00 18.2 17 Oeste 36 Norte 0 -- -- 39
2019-06-05 12:00:00 17.7 18 Noroeste 36 Noroeste 0 -- -- 42
2019-06-05 11:00:00 16.6 13 Noroeste 35 Noroeste 0 -- -- 44
2019-06-05 10:00:00 14.5 23 Noroeste 43 Noroeste 0 -- -- 52
2019-06-05 09:00:00 13.1 14 Oeste 31 Noroeste 0 -- -- 58
2019-06-05 08:00:00 11.9 14 Noroeste 29 Oeste 0 -- -- 62
2019-06-05 07:00:00 11.2 16 Noroeste 36 Noroeste 0 -- -- 66
2019-06-05 06:00:00 11.6 17 Noroeste 34 Oeste 0 -- -- 63
2019-06-05 05:00:00 11.8 19 Noroeste 33 Oeste 0 -- -- 64
2019-06-05 04:00:00 12.3 16 Noroeste 36 Noroeste 0 -- -- 63
2019-06-05 03:00:00 13.1 19 Noroeste 40 Noroeste 0 -- -- 60
2019-06-05 02:00:00 14 22 Noroeste 37 Noroeste 0 -- -- 56
2019-06-05 01:00:00 14.3 10 Oeste 26 Oeste 0 -- -- 53
2019-06-05 00:00:00 15.7 15 Oeste 34 Oeste 0 -- -- 50
2019-06-04 23:00:00 17.5 17 Oeste 31 Oeste 0 -- -- 49
2019-06-04 22:00:00 18.6 14 Oeste 30 Oeste 0 -- -- 51
2019-06-04 21:00:00 20.3 12 Oeste 31 Sudoeste 0 -- -- 48
2019-06-04 20:00:00 21.1 13 Oeste 32 Oeste 0 -- -- 51
2019-06-04 19:00:00 23.2 19 Oeste 41 Oeste 0 -- -- 50
2019-06-04 18:00:00 -- -- -- -- -- -- -- -- --
2019-06-04 17:00:00 -- -- -- -- -- -- -- -- --
2019-06-04 16:00:00 -- -- -- -- -- -- -- -- --
2019-06-04 15:00:00 -- -- -- -- -- -- -- -- --
2019-06-04 14:00:00 24.1 20 Sudoeste 34 Sudoeste 0 -- -- 43
2019-06-04 13:00:00 23.1 17 Sudoeste 30 Sudoeste 0 -- -- 47
2019-06-04 12:00:00 21.2 15 Sudoeste 29 Sudoeste 0 -- -- 52
2019-06-04 11:00:00 19.8 13 Sudoeste 26 Sudoeste 0 -- -- 58
2019-06-04 10:00:00 17.3 9 Sudoeste 21 Sudoeste 0 -- -- 68
2019-06-04 09:00:00 16 12 Oeste 19 Sudoeste 0 -- -- 77
2019-06-04 08:00:00 15 10 Sudoeste 19 Oeste 0 -- -- 84
2019-06-04 07:00:00 14.7 9 Sudoeste 16 Sudoeste 0 -- -- 87
2019-06-04 06:00:00 15.4 5 Sudoeste 10 Sudoeste 0 -- -- 82
2019-06-04 05:00:00 16.1 6 Sudoeste 14 Sudoeste 0 -- -- 77
2019-06-04 04:00:00 17.6 8 Sudoeste 14 Sudoeste 0 -- -- 70
2019-06-04 03:00:00 18.9 9 Sudoeste 14 Sudoeste 0 -- -- 66
2019-06-04 02:00:00 20 7 Oeste 19 Oeste 0 -- -- 62
2019-06-04 01:00:00 21.4 7 Oeste 22 Oeste 0 -- -- 57
2019-06-04 00:00:00 23 10 Oeste 24 Oeste 0 -- -- 51
2019-06-03 23:00:00 24.4 8 Oeste 19 Oeste 0 -- -- 46
2019-06-03 22:00:00 26.3 9 Oeste 29 Oeste 0 -- -- 38
2019-06-03 21:00:00 28.9 15 Oeste 35 Sudoeste 0 -- -- 32
2019-06-03 20:00:00 30.6 20 Oeste 42 Sudoeste 0 -- -- 23
2019-06-03 19:00:00 32.8 20 Sudoeste 41 Oeste 0 -- -- 16
2019-06-03 18:00:00 33.4 19 Sudoeste 42 Sudoeste 0 -- -- 16
2019-06-03 17:00:00 33.9 19 Sudoeste 45 Sur 0 -- -- 15
2019-06-03 16:00:00 33.5 16 Sudoeste 35 Sudoeste 0 -- -- 14
2019-06-03 15:00:00 32.8 17 Sudoeste 35 Oeste 0 -- -- 13
2019-06-03 14:00:00 31.9 12 Sudoeste 29 Oeste 0 -- -- 13
2019-06-03 13:00:00 30.2 10 Sudoeste 26 Sur 0 -- -- 14
2019-06-03 12:00:00 27.7 10 Sudoeste 24 Sur 0 -- -- 24
2019-06-03 11:00:00 25.3 5 Sudoeste 15 Sudoeste -- -- -- 33
2019-06-03 10:00:00 22.2 4 Sur 8 Sur 0 -- -- 40
2019-06-03 09:00:00 18.6 3 Nordeste 6 Sudeste 0 -- -- 51
2019-06-03 08:00:00 18.1 0 Calma 8 Sudoeste 0 -- -- 50
2019-06-03 07:00:00 18.2 5 Sudoeste 10 Oeste 0 -- -- 48
2019-06-03 06:00:00 18.8 7 Oeste 12 Sudoeste 0 -- -- 45
2019-06-03 05:00:00 19.4 4 Oeste 11 Oeste 0 -- -- 41
2019-06-03 04:00:00 20.3 8 Oeste 14 Sudoeste 0 -- -- 38
2019-06-03 03:00:00 21.2 9 Sudoeste 14 Oeste 0 -- -- 34
2019-06-03 02:00:00 23.2 9 Oeste 15 Sudoeste 0 -- -- 30
2019-06-03 01:00:00 24.4 7 Oeste 14 Oeste 0 -- -- 24
2019-06-03 00:00:00 25.9 5 Oeste 28 Noroeste 0 -- -- 23
2019-06-02 23:00:00 27.9 22 Noroeste 33 Noroeste 0 -- -- 23
2019-06-02 22:00:00 29.1 18 Noroeste 35 Oeste 0 -- -- 22
2019-06-02 21:00:00 31.1 11 Oeste 26 Oeste 0 -- -- 19
2019-06-02 20:00:00 33.3 13 Noroeste 25 Noroeste 0 -- -- 16
2019-06-02 19:00:00 35.2 9 Oeste 27 Oeste 0 -- -- 14
2019-06-02 18:00:00 35.7 13 Sudoeste 42 Sudoeste 0 -- -- 15
2019-06-02 17:00:00 35.5 17 Sudoeste 36 Sur 0 -- -- 16
2019-06-02 16:00:00 35.3 16 Sudoeste 35 Sudoeste 0 -- -- 16
2019-06-02 15:00:00 34.8 5 Sur 18 Oeste 0 -- -- 19
2019-06-02 14:00:00 33.7 4 Sudeste 18 Sudeste 0 -- -- 20
2019-06-02 13:00:00 31.8 6 Sur 19 Sudeste 0 -- -- 23
2019-06-02 12:00:00 29.9 9 Este 19 Sudeste 0 -- -- 25
2019-06-02 11:00:00 27.4 10 Este 18 Sudeste 0 -- -- 28
2019-06-02 10:00:00 24.5 8 Este 18 Este 0 -- -- 32
2019-06-02 09:00:00 21.9 7 Nordeste 12 Este 0 -- -- 37
2019-06-02 08:00:00 19.1 4 Nordeste 12 Sudeste 0 -- -- 43
2019-06-02 07:00:00 20.5 5 Nordeste 11 Noroeste 0 -- -- 39
2019-06-02 06:00:00 23.5 8 Noroeste 17 Este 0 -- -- 35
2019-06-02 05:00:00 23.3 8 Nordeste 26 Norte 0 -- -- 34
2019-06-02 04:00:00 26.3 16 Norte 27 Norte 0 -- -- 30
2019-06-02 03:00:00 27.2 15 Norte 27 Noroeste 0 -- -- 28
2019-06-02 02:00:00 27.4 16 Norte 32 Noroeste 0 -- -- 27
2019-06-02 01:00:00 26.4 13 Noroeste 23 Noroeste 0 -- -- 27
2019-06-02 00:00:00 28 4 Noroeste 8 Noroeste 0 -- -- 23
2019-06-01 23:00:00 28.3 7 Noroeste 10 Noroeste 0 -- -- 23
2019-06-01 22:00:00 29.2 7 Noroeste 12 Noroeste 0 -- -- 23
2019-06-01 21:00:00 32.1 6 Noroeste 13 Norte 0 -- -- 20
2019-06-01 20:00:00 33 9 Norte 17 Noroeste 0 -- -- 18
2019-06-01 19:00:00 34.5 7 Este 21 Este 0 -- -- 14
2019-06-01 18:00:00 35.1 8 Este 21 Este 0 -- -- 14
2019-06-01 17:00:00 34.8 6 Norte 18 Noroeste 0 -- -- 15
2019-06-01 16:00:00 34.4 4 Oeste 18 Norte 0 -- -- 16
2019-06-01 15:00:00 33.1 7 Norte 16 Nordeste 0 -- -- 19
2019-06-01 14:00:00 31.6 8 Nordeste 22 Este 0 -- -- 22
2019-06-01 13:00:00 30.2 10 Este 23 Nordeste 0 -- -- 24
2019-06-01 12:00:00 28.1 11 Nordeste 21 Este 0 -- -- 27
2019-06-01 11:00:00 25.7 13 Nordeste 21 Este 0 -- -- 32
2019-06-01 10:00:00 23.9 13 Nordeste 19 Nordeste 0 -- -- 32
2019-06-01 09:00:00 22 12 Nordeste 18 Nordeste 0 -- -- 37
2019-06-01 08:00:00 20.1 8 Nordeste 13 Nordeste 0 -- -- 45
2019-06-01 07:00:00 20.2 7 Este 9 Nordeste 0 -- -- 40
2019-06-01 06:00:00 19.3 7 Sudoeste 21 Sudoeste 0 -- -- 46
2019-06-01 05:00:00 21.9 5 Nordeste 10 Nordeste 0 -- -- 35
2019-06-01 04:00:00 23.2 6 Este 8 Nordeste 0 -- -- 34
2019-06-01 03:00:00 22.3 5 Nordeste 18 Este 0 -- -- 39
2019-06-01 02:00:00 25.1 6 Este 8 Este 0 -- -- 34
2019-06-01 01:00:00 25.3 5 Nordeste 7 Nordeste 0 -- -- 34
2019-06-01 00:00:00 26.5 5 Nordeste 8 Nordeste 0 -- -- 31
2019-05-31 23:00:00 27.2 5 Nordeste 7 Nordeste 0 -- -- 26
2019-05-31 22:00:00 28.6 2 Noroeste 5 Noroeste 0 -- -- 24
2019-05-31 21:00:00 31.7 4 Noroeste 13 Noroeste 0 -- -- 21
2019-05-31 20:00:00 32.5 3 Sudeste 13 Este 0 -- -- 20
2019-05-31 19:00:00 33.7 5 Sudeste 23 Este 0 -- -- 19
2019-05-31 18:00:00 33.9 12 Este 24 Sudeste 0 -- -- 19
2019-05-31 17:00:00 33.5 9 Este 27 Este 0 -- -- 19
2019-05-31 16:00:00 33.4 12 Nordeste 20 Nordeste 0 -- -- 18
2019-05-31 15:00:00 32.8 11 Nordeste 19 Este 0 -- -- 19
2019-05-31 14:00:00 31.2 10 Este 21 Nordeste 0 -- -- 22
2019-05-31 13:00:00 29.5 12 Este 23 Nordeste 0 -- -- 24
2019-05-31 12:00:00 27.7 15 Nordeste 25 Este 0 -- -- 28
2019-05-31 11:00:00 25.6 16 Nordeste 32 Nordeste 0 -- -- 30
2019-05-31 10:00:00 23.5 18 Este 28 Este 0 -- -- 32
2019-05-31 09:00:00 21.2 16 Este 24 Este 0 -- -- 34
2019-05-31 08:00:00 19.8 11 Este 30 Nordeste 0 -- -- 36
2019-05-31 07:00:00 20.1 21 Nordeste 36 Nordeste 0 -- -- 35
2019-05-31 06:00:00 19 11 Nordeste 22 Nordeste 0 -- -- 41
2019-05-31 05:00:00 19.6 16 Nordeste 24 Nordeste 0 -- -- 43
2019-05-31 04:00:00 22.3 -- -- -- -- 0 -- -- 38
2019-05-31 03:00:00 20.7 6 Nordeste 10 Este 0 -- -- 39
2019-05-31 02:00:00 22.2 8 Este 12 Este 0 -- -- 36
2019-05-31 01:00:00 24.1 8 Nordeste 9 Nordeste 0 -- -- 32
2019-05-31 00:00:00 24.7 5 Nordeste 10 Nordeste 0 -- -- 31
2019-05-30 23:00:00 24.8 5 Norte 8 Nordeste 0 -- -- 31
2019-05-30 22:00:00 26.3 5 Nordeste 8 Este 0 -- -- 27
2019-05-30 21:00:00 29.7 8 Nordeste 18 Este 0 -- -- 22
2019-05-30 20:00:00 30.7 6 Nordeste 20 Nordeste 0 -- -- 21
2019-05-30 19:00:00 31.6 8 Nordeste 24 Este 0 -- -- 21
2019-05-30 18:00:00 31.6 15 Este 34 Este 0 -- -- 19
2019-05-30 17:00:00 31.3 14 Este 34 Este 0 -- -- 21
2019-05-30 16:00:00 30.4 19 Nordeste 30 Este 0 -- -- 21
2019-05-30 15:00:00 29.5 15 Nordeste 35 Nordeste 0 -- -- 23
2019-05-30 14:00:00 27.8 17 Nordeste 41 Nordeste 0 -- -- 26
2019-05-30 13:00:00 26.3 21 Nordeste 34 Este 0 -- -- 29
2019-05-30 12:00:00 24.5 24 Este 42 Este 0 -- -- 31
2019-05-30 11:00:00 22.7 23 Nordeste 48 Este -- -- -- 34
2019-05-30 10:00:00 20.9 24 Nordeste 39 Nordeste 0 -- -- 38
2019-05-30 09:00:00 19 20 Este 39 Nordeste 0 -- -- 41
2019-05-30 08:00:00 18.4 22 Nordeste 39 Nordeste 0 -- -- 41
2019-05-30 07:00:00 18.2 22 Nordeste 37 Nordeste 0 -- -- 41
2019-05-30 06:00:00 19 23 Nordeste 35 Nordeste 0 -- -- 40
2019-05-30 05:00:00 19.6 15 Nordeste 24 Nordeste 0 -- -- 36
2019-05-30 04:00:00 20.2 15 Nordeste 28 Este 0 -- -- 33
2019-05-30 03:00:00 20.4 10 Nordeste 19 Nordeste 0 -- -- 33
2019-05-30 02:00:00 20.3 9 Nordeste 14 Nordeste 0 -- -- 37
2019-05-30 01:00:00 21 7 Nordeste 12 Nordeste 0 -- -- 38
2019-05-30 00:00:00 22.5 6 Nordeste 15 Noroeste 0 -- -- 32
2019-05-29 23:00:00 23.2 6 Norte 14 Noroeste 0 -- -- 32
2019-05-29 22:00:00 24 5 Norte 14 Nordeste 0 -- -- 35
2019-05-29 21:00:00 27.5 10 Nordeste 18 Este 0 -- -- 28
2019-05-29 20:00:00 28.4 7 Este 19 Sudeste 0 -- -- 27
2019-05-29 19:00:00 29.4 10 Este 24 Este 0 -- -- 26
2019-05-29 18:00:00 29.4 10 Nordeste 24 Nordeste 0 -- -- 26
2019-05-29 17:00:00 28.4 10 Nordeste 25 Este 0 -- -- 26
2019-05-29 16:00:00 27.4 9 Nordeste 25 Este 0 -- -- 27
2019-05-29 15:00:00 26 16 Este 31 Este 0 -- -- 28
2019-05-29 14:00:00 24.6 17 Este 32 Nordeste 0 -- -- 29
2019-05-29 13:00:00 22.8 20 Nordeste 36 Este 0 -- -- 31
2019-05-29 12:00:00 20.8 25 Este 36 Nordeste 0 -- -- 34
2019-05-29 11:00:00 19.6 23 Nordeste 40 Nordeste 0 -- -- 36
2019-05-29 10:00:00 18 27 Nordeste 42 Nordeste 0 -- -- 40
2019-05-29 09:00:00 16.8 23 Nordeste 36 Nordeste 0 -- -- 42
2019-05-29 08:00:00 16 15 Nordeste 33 Nordeste 0 -- -- 45
2019-05-29 07:00:00 16.1 17 Nordeste 32 Este 0 -- -- 44
2019-05-29 06:00:00 16.8 19 Nordeste 38 Nordeste 0 -- -- 42
2019-05-29 05:00:00 18 27 Nordeste 44 Nordeste 0 -- -- 38
2019-05-29 04:00:00 18.8 16 Nordeste 36 Este 0 -- -- 36
2019-05-29 03:00:00 19.4 17 Nordeste 36 Este 0 -- -- 36
2019-05-29 02:00:00 20.4 16 Nordeste 24 Nordeste 0 -- -- 35
2019-05-29 01:00:00 21.5 11 Nordeste 21 Norte 0 -- -- 31
2019-05-29 00:00:00 22.2 10 Norte 44 Norte 0 -- -- 29
2019-05-28 23:00:00 23.6 24 Norte 40 Norte 0 -- -- 26
2019-05-28 22:00:00 24.3 24 Norte 41 Norte 0 -- -- 25
2019-05-28 21:00:00 25.8 27 Norte 45 Noroeste 0 -- -- 24
2019-05-28 20:00:00 26.8 25 Norte 48 Noroeste 0 -- -- 22
2019-05-28 19:00:00 28 28 Norte 49 Norte 0 -- -- 20
2019-05-28 18:00:00 28.7 30 Norte -- -- -- -- -- 17
2019-05-28 17:00:00 28.8 23 Norte 46 Noroeste 0 -- -- 15
2019-05-28 16:00:00 28.4 19 Norte 35 Norte 0 -- -- 20
2019-05-28 15:00:00 28.3 17 Norte 36 Noroeste 0 -- -- 21
2019-05-28 14:00:00 28 14 Noroeste 28 Noroeste 0 -- -- 25
2019-05-28 13:00:00 26.7 15 Noroeste 28 Nordeste 0 -- -- 29
2019-05-28 12:00:00 25.5 15 Nordeste 24 Nordeste 0 -- -- 36
2019-05-28 11:00:00 23.4 17 Nordeste 26 Nordeste 0 -- -- 41
2019-05-28 10:00:00 21.7 16 Nordeste 35 Nordeste 0 -- -- 44
2019-05-28 09:00:00 19.8 22 Nordeste 33 Nordeste 0 -- -- 47
2019-05-28 08:00:00 19.2 20 Este 36 Este 0 -- -- 49
2019-05-28 07:00:00 19.1 19 Este 34 Este 0 -- -- 49
2019-05-28 06:00:00 19.8 17 Nordeste 30 Nordeste 0 -- -- 47
2019-05-28 05:00:00 20.6 17 Nordeste 31 Nordeste 0 -- -- 43
2019-05-28 04:00:00 20.8 14 Norte 35 Norte 0 -- -- 46
2019-05-28 03:00:00 22.1 22 Norte 41 Norte 0 -- -- 44
2019-05-28 02:00:00 22.9 22 Noroeste 37 Norte 0 -- -- 41
2019-05-28 01:00:00 23.6 19 Noroeste 34 Noroeste 0 -- -- 37
2019-05-28 00:00:00 24.2 14 Norte 39 Noroeste 0 -- -- 35
2019-05-27 23:00:00 25.3 20 Noroeste 37 Noroeste 0 -- -- 33
2019-05-27 22:00:00 25.8 16 Norte 30 Noroeste 0 -- -- 31
2019-05-27 21:00:00 27.6 15 Noroeste 29 Norte 0 -- -- 30
2019-05-27 20:00:00 28.5 14 Noroeste 28 Noroeste 0 -- -- 27
2019-05-27 19:00:00 30.4 14 Noroeste 30 Oeste 0 -- -- 25
2019-05-27 18:00:00 31.3 12 Oeste 32 Noroeste 0 -- -- 24
2019-05-27 17:00:00 31.5 13 Noroeste 33 Oeste 0 -- -- 25
2019-05-27 16:00:00 30.3 12 Noroeste 30 Noroeste 0 -- -- 29
2019-05-27 15:00:00 29.9 17 Noroeste 33 Noroeste 0 -- -- 31
2019-05-27 14:00:00 29.2 14 Noroeste 27 Noroeste 0 -- -- 31
2019-05-27 13:00:00 28 14 Noroeste 28 Noroeste 0 -- -- 34
2019-05-27 12:00:00 27.3 9 Norte 17 Noroeste 0 -- -- 35
2019-05-27 11:00:00 25.8 9 Nordeste 18 Nordeste 0 -- -- 36
2019-05-27 10:00:00 23.9 5 Nordeste 15 Norte 0 -- -- 40
2019-05-27 09:00:00 22.1 9 Norte 19 Noroeste 0 -- -- 45
2019-05-27 08:00:00 20.7 5 Nordeste 14 Norte 0 -- -- 45
2019-05-27 07:00:00 20.1 4 Sudeste 12 Sudeste 0 -- -- 44
2019-05-27 06:00:00 20.7 2 Oeste 21 Sudoeste 0 -- -- 42
2019-05-27 05:00:00 22 10 Norte 26 Noroeste -- -- -- 39
2019-05-27 04:00:00 22.2 14 Noroeste 23 Noroeste 0 -- -- 37
2019-05-27 03:00:00 21.8 4 Oeste 13 Noroeste 0 -- -- 36
2019-05-27 02:00:00 20.8 2 Noroeste 12 Norte 0 -- -- 38
2019-05-27 01:00:00 23 6 Norte 16 Norte 0 -- -- 34
2019-05-27 00:00:00 24.6 12 Norte 21 Norte 0 -- -- 31
2019-05-26 23:00:00 25.2 11 Norte 23 Norte 0 -- -- 29
2019-05-26 22:00:00 26.1 10 Norte 27 Norte 0 -- -- 27
2019-05-26 21:00:00 27.5 14 Norte 40 Norte 0 -- -- 24
2019-05-26 20:00:00 28 19 Norte 37 Norte 0 -- -- 24
2019-05-26 19:00:00 28.9 16 Norte 40 Norte 0 -- -- 25
2019-05-26 18:00:00 29.2 19 Norte 44 Noroeste 0 -- -- 25
2019-05-26 17:00:00 29 22 Norte 41 Noroeste 0 -- -- 26
2019-05-26 16:00:00 28.7 19 Norte 33 Norte 0 -- -- 27
2019-05-26 15:00:00 28.5 12 Norte 26 Nordeste 0 -- -- 29
2019-05-26 14:00:00 26.8 12 Noroeste 28 Norte 0 -- -- 31
2019-05-26 13:00:00 25.7 10 Este 21 Nordeste 0 -- -- 33
2019-05-26 12:00:00 23.4 9 Nordeste 19 Nordeste 0 -- -- 36
2019-05-26 11:00:00 21.4 10 Norte 25 Nordeste 0 -- -- 39
2019-05-26 10:00:00 19.8 9 Nordeste 18 Nordeste 0 -- -- 42
2019-05-26 09:00:00 18.5 12 Nordeste 18 Nordeste 0 -- -- 44
2019-05-26 08:00:00 16.2 10 Norte 15 Norte 0 -- -- 44
2019-05-26 07:00:00 15.4 6 Norte 13 Norte 0 -- -- 48
2019-05-26 06:00:00 17.2 7 Norte 13 Norte 0 -- -- 42
2019-05-26 05:00:00 17.9 8 Norte 17 Nordeste 0 -- -- 40
2019-05-26 04:00:00 18.2 7 Norte 18 Noroeste 0 -- -- 39
2019-05-26 03:00:00 18.7 4 Norte 13 Noroeste 0 -- -- 37
2019-05-26 02:00:00 19.3 8 Norte 18 Norte 0 -- -- 36
2019-05-26 01:00:00 20.1 8 Norte 17 Norte 0 -- -- 35
2019-05-26 00:00:00 20.9 12 Norte 30 Norte 0 -- -- 32
2019-05-25 23:00:00 21.9 16 Norte 31 Norte 0 -- -- 32
2019-05-25 22:00:00 23 21 Norte 35 Norte 0 -- -- 29
2019-05-25 21:00:00 24.2 19 Norte 39 Norte 0 -- -- 28
2019-05-25 20:00:00 25.2 20 Norte 35 Norte 0 -- -- 27
2019-05-25 19:00:00 26.5 14 Norte 27 Norte 0 -- -- 26
2019-05-25 18:00:00 26.8 14 Norte 24 Norte 0 -- -- 27
2019-05-25 17:00:00 27.4 9 Noroeste 25 Noroeste 0 -- -- 26
2019-05-25 16:00:00 26.3 5 Sudoeste 21 Norte 0 -- -- 28
2019-05-25 15:00:00 25 14 Nordeste 25 Norte 0 -- -- 31
2019-05-25 14:00:00 23.7 12 Nordeste 23 Nordeste 0 -- -- 32
2019-05-25 13:00:00 22.4 9 Nordeste 19 Nordeste 0 -- -- 36
2019-05-25 12:00:00 20.4 9 Norte 23 Este 0 -- -- 39
2019-05-25 11:00:00 19.3 12 Este 28 Este 0 -- -- 43
2019-05-25 10:00:00 18 10 Nordeste 18 Nordeste 0 -- -- 47
2019-05-25 09:00:00 15.7 12 Norte 20 Norte 0 -- -- 54
2019-05-25 08:00:00 14.2 10 Norte 20 Norte 0 -- -- 55
2019-05-25 07:00:00 13.5 7 Norte 23 Nordeste 0 -- -- 55
2019-05-25 06:00:00 15.1 17 Nordeste 26 Nordeste 0 -- -- 50
2019-05-25 05:00:00 14.8 7 Norte 17 Nordeste 0 -- -- 49
2019-05-25 04:00:00 15.8 7 Norte 18 Norte 0 -- -- 46
2019-05-25 03:00:00 17 11 Norte 22 Nordeste 0 -- -- 42
2019-05-25 02:00:00 18.2 11 Norte 19 Nordeste 0 -- -- 38
2019-05-25 01:00:00 18.4 7 Nordeste 13 Nordeste 0 -- -- 38
2019-05-25 00:00:00 20.3 9 Nordeste 30 Norte 0 -- -- 33
2019-05-24 23:00:00 21.6 16 Norte 36 Norte 0 -- -- 30
2019-05-24 22:00:00 22.5 21 Norte 39 Norte 0 -- -- 29
2019-05-24 21:00:00 23.8 24 Norte 41 Norte 0 -- -- 26
2019-05-24 20:00:00 24.9 22 Norte 40 Norte 0 -- -- 25
2019-05-24 19:00:00 25.8 23 Norte 42 Norte 0 -- -- 26
2019-05-24 18:00:00 26.9 24 Noroeste 49 Noroeste 0 -- -- 25
2019-05-24 17:00:00 27 21 Norte 35 Norte 0 -- -- 26
2019-05-24 16:00:00 26.7 21 Norte 39 Norte 0 -- -- 29
2019-05-24 15:00:00 25.9 19 Norte 39 Noroeste 0 -- -- 32
2019-05-24 14:00:00 25 21 Noroeste 39 Noroeste 0 -- -- 35
2019-05-24 13:00:00 24.1 21 Norte 37 Noroeste 0 -- -- 36
2019-05-24 12:00:00 23.1 18 Norte 33 Norte 0 -- -- 42
2019-05-24 11:00:00 21.1 22 Norte 38 Norte 0 -- -- 49
2019-05-24 10:00:00 19.4 21 Norte 49 Noroeste 0 -- -- 54
2019-05-24 09:00:00 16.6 30 Noroeste 51 Noroeste 0 -- -- 62
2019-05-24 08:00:00 15.6 28 Noroeste 57 Norte 0 -- -- 60
2019-05-24 07:00:00 15.8 29 Noroeste 53 Norte 0 -- -- 57
2019-05-24 06:00:00 16.6 30 Norte 50 Norte 0 -- -- 53
2019-05-24 05:00:00 17.2 33 Noroeste 51 Noroeste 0 -- -- 53
2019-05-24 04:00:00 17.8 29 Noroeste 51 Noroeste 0 -- -- 52
2019-05-24 03:00:00 18.4 29 Noroeste 51 Noroeste 0 -- -- 51
2019-05-24 02:00:00 19.2 31 Noroeste 51 Noroeste 0 -- -- 51
2019-05-24 01:00:00 20 27 Noroeste 46 Noroeste 0 -- -- 52
2019-05-24 00:00:00 20.6 26 Noroeste 45 Noroeste -- -- -- 50
2019-05-23 23:00:00 21.8 18 Noroeste 35 Noroeste 0 -- -- 45
2019-05-23 22:00:00 22.6 10 Oeste 34 Oeste 0 -- -- 42
2019-05-23 21:00:00 25.9 15 Oeste 32 Sudoeste 0 -- -- 28
2019-05-23 20:00:00 27.8 14 Sudoeste 27 Sudoeste 0 -- -- 26
2019-05-23 19:00:00 28.5 14 Oeste 29 Oeste 0 -- -- 25
2019-05-23 18:00:00 29.5 12 Noroeste 25 Oeste 0 -- -- 27
2019-05-23 17:00:00 29.5 12 Sudoeste 35 Sudoeste 0 -- -- 24
2019-05-23 16:00:00 29 10 Sudoeste 30 Sudoeste 0 -- -- 22
2019-05-23 15:00:00 28.3 12 Oeste 30 Sudoeste 0 -- -- 22
2019-05-23 14:00:00 27.1 13 Sudoeste 31 Sur 0 -- -- 30
2019-05-23 13:00:00 25.8 12 Sudoeste 26 Sudoeste 0 -- -- 35
2019-05-23 12:00:00 23.8 11 Sudoeste 24 Sudoeste 0 -- -- 39
2019-05-23 11:00:00 21.9 9 Sudoeste 19 Sudoeste 0 -- -- 53
2019-05-23 10:00:00 18.5 7 Oeste 12 Sudoeste 0 -- -- 65
2019-05-23 09:00:00 16.2 8 Sudoeste 12 Oeste 0 -- -- 75
2019-05-23 08:00:00 15 0 Calma 5 Nordeste 0 -- -- 77
2019-05-23 07:00:00 14.3 3 Nordeste 12 Este 0 -- -- 79
2019-05-23 06:00:00 16.3 3 Norte 12 Sudoeste 0 -- -- 72
2019-05-23 05:00:00 18.7 5 Sudoeste 17 Oeste 0 -- -- 61
2019-05-23 04:00:00 19.2 5 Oeste 12 Sudoeste 0 -- -- 58
2019-05-23 03:00:00 20.5 9 Noroeste 23 Norte 0 -- -- 51
2019-05-23 02:00:00 21 7 Oeste 28 Oeste 0 -- -- 53
2019-05-23 01:00:00 22.1 18 Noroeste 37 Noroeste 0 -- -- 51
2019-05-23 00:00:00 22.7 16 Sudoeste 24 Sudoeste 0 -- -- 44
2019-05-22 23:00:00 23 9 Sudoeste 17 Sudoeste 0 -- -- 37
2019-05-22 22:00:00 24.5 4 Oeste 6 Oeste 0 -- -- 33
2019-05-22 21:00:00 26.8 4 Oeste 14 Oeste 0 -- -- 28
2019-05-22 20:00:00 27.1 5 Sudoeste 12 Sudoeste 0 -- -- 27
2019-05-22 19:00:00 28.1 7 Oeste 22 Sudoeste 0 -- -- 26
2019-05-22 18:00:00 28.2 6 Noroeste 23 Oeste 0 -- -- 25
2019-05-22 17:00:00 29.8 13 Sudoeste 23 Oeste 0 -- -- 24
2019-05-22 16:00:00 28.7 5 Oeste 21 Sudoeste 0 -- -- 26
2019-05-22 15:00:00 27.9 5 Noroeste 14 Oeste 0 -- -- 28
2019-05-22 14:00:00 27.7 10 Sudoeste 22 Sudoeste 0 -- -- 27
2019-05-22 13:00:00 25.9 7 Norte 24 Sudeste 0 -- -- 35
2019-05-22 12:00:00 24 11 Nordeste 24 Nordeste 0 -- -- 40
2019-05-22 11:00:00 22.1 16 Este 31 Este 0 -- -- 45
2019-05-22 10:00:00 19.6 19 Nordeste 28 Nordeste 0 -- -- 51
2019-05-22 09:00:00 16.9 12 Este 25 Nordeste 0 -- -- 58
2019-05-22 08:00:00 14.3 10 Nordeste 13 Nordeste 0 -- -- 72
2019-05-22 07:00:00 12.6 8 Este 10 Este 0 -- -- 72
2019-05-22 06:00:00 12.7 6 Este 10 Nordeste 0 -- -- 72
2019-05-22 05:00:00 13.3 4 Nordeste 6 Nordeste 0 -- -- 71
2019-05-22 04:00:00 14.3 3 Nordeste 6 Sudeste 0 -- -- 71
2019-05-22 03:00:00 16 3 Oeste 15 Sudoeste 0 -- -- 67
2019-05-22 02:00:00 17.6 5 Oeste 13 Sudoeste 0 -- -- 60
2019-05-22 01:00:00 18.5 6 Sudoeste 21 Oeste 0 -- -- 53
2019-05-22 00:00:00 19.3 8 Oeste 19 Sudoeste 0 -- -- 52
2019-05-21 23:00:00 21.2 4 Noroeste 8 Noroeste 0 -- -- 36
2019-05-21 22:00:00 22 6 Noroeste 9 Noroeste 0 -- -- 34
2019-05-21 21:00:00 24.5 5 Noroeste 13 Noroeste 0 -- -- 29
2019-05-21 20:00:00 24.9 7 Noroeste 16 Oeste 0 -- -- 28
2019-05-21 19:00:00 26.4 10 Sudoeste 22 Oeste 0 -- -- 26
2019-05-21 18:00:00 26.6 6 Noroeste 17 Oeste 0 -- -- 27
2019-05-21 17:00:00 27.1 6 Sudoeste 26 Sudoeste 0 -- -- 27
2019-05-21 16:00:00 25.7 7 Norte 18 Sudoeste 0 -- -- 29
2019-05-21 15:00:00 24.7 7 Oeste 22 Sudoeste 0 -- -- 31
2019-05-21 14:00:00 24.3 9 Oeste 23 Noroeste 0 -- -- 32
2019-05-21 13:00:00 22.9 6 Oeste 19 Noroeste 0 -- -- 35
2019-05-21 12:00:00 21.4 9 Norte 20 Norte 0 -- -- 42
2019-05-21 11:00:00 19.2 9 Noroeste 21 Noroeste 0 -- -- 46
2019-05-21 10:00:00 17.6 8 Norte 18 Noroeste 0 -- -- 50
2019-05-21 09:00:00 16 8 Oeste 26 Noroeste 0 -- -- 52
2019-05-21 08:00:00 14.7 17 Noroeste 32 Noroeste 0 -- -- 56
2019-05-21 07:00:00 14.4 18 Noroeste 31 Noroeste 0 -- -- 57
2019-05-21 06:00:00 14.7 19 Noroeste 32 Noroeste 0 -- -- 54
2019-05-21 05:00:00 14.7 18 Noroeste 32 Noroeste 0 -- -- 55
2019-05-21 04:00:00 15.1 17 Noroeste 31 Noroeste 0 -- -- 52
2019-05-21 03:00:00 16 20 Noroeste 31 Noroeste 0 -- -- 44
2019-05-21 02:00:00 16.5 17 Noroeste 29 Noroeste 0 -- -- 42
2019-05-21 01:00:00 17 15 Noroeste 28 Noroeste 0 -- -- 41
2019-05-21 00:00:00 17.7 18 Noroeste 29 Noroeste 0 -- -- 40
2019-05-20 23:00:00 18.4 17 Noroeste 34 Noroeste 0 -- -- 40
2019-05-20 22:00:00 19.9 18 Noroeste 29 Noroeste 0 -- -- 36
2019-05-20 21:00:00 21.3 13 Noroeste 23 Noroeste 0 -- -- 27
2019-05-20 20:00:00 23.1 13 Oeste 23 Noroeste 0 -- -- 25
2019-05-20 19:00:00 23.5 8 Oeste 19 Noroeste 0 -- -- 27
2019-05-20 18:00:00 24 6 Sudoeste 21 Sudoeste 0 -- -- 26
2019-05-20 17:00:00 23.8 8 Noroeste 21 Sudoeste 0 -- -- 26
2019-05-20 16:00:00 23.6 9 Noroeste 21 Oeste 0 -- -- 27
2019-05-20 15:00:00 22.4 6 Noroeste 18 Noroeste 0 -- -- 27
2019-05-20 14:00:00 21.7 6 Sudeste 18 Oeste 0 -- -- 27
2019-05-20 13:00:00 20 4 Oeste 15 Este 0 -- -- 33
2019-05-20 12:00:00 18.5 6 Este 21 Este 0 -- -- 39
2019-05-20 11:00:00 17.7 10 Este 19 Este 0 -- -- 40
2019-05-20 10:00:00 14.8 6 Nordeste 13 Nordeste 0 -- -- 43
2019-05-20 09:00:00 12.8 6 Este 11 Este 0 -- -- 52
2019-05-20 08:00:00 10.8 4 Este 17 Nordeste 0 -- -- 58
2019-05-20 07:00:00 12.2 6 Este 17 Norte 0 -- -- 51
2019-05-20 06:00:00 11.6 4 Este 8 Sudeste 0 -- -- 56
2019-05-20 05:00:00 13.1 3 Sudeste 11 Oeste 0 -- -- 48
2019-05-20 04:00:00 12.8 7 Oeste 14 Oeste 0 -- -- 49
2019-05-20 03:00:00 14.2 7 Oeste 24 Noroeste 0 -- -- 45
2019-05-20 02:00:00 15 15 Norte 27 Noroeste 0 -- -- 42
2019-05-20 01:00:00 15.8 15 Norte 30 Norte 0 -- -- 41
2019-05-20 00:00:00 16.4 17 Noroeste 32 Norte 0 -- -- 42
2019-05-19 23:00:00 17.6 18 Noroeste 30 Noroeste 0 -- -- 38
2019-05-19 22:00:00 17.9 11 Noroeste 17 Noroeste 0 -- -- 36
2019-05-19 21:00:00 19.4 8 Norte 20 Noroeste 0 -- -- 32
2019-05-19 20:00:00 20.4 12 Noroeste 27 Oeste 0 -- -- 30
2019-05-19 19:00:00 21.6 13 Noroeste 32 Oeste 0 -- -- 26
2019-05-19 18:00:00 22.6 12 Oeste 30 Noroeste 0 -- -- 25
2019-05-19 17:00:00 22.1 13 Oeste 34 Sudoeste 0 -- -- 26
2019-05-19 16:00:00 21.3 16 Oeste 30 Oeste 0 -- -- 27
2019-05-19 15:00:00 21 10 Noroeste 32 Noroeste 0 -- -- 28
2019-05-19 14:00:00 19.3 10 Norte 26 Oeste 0 -- -- 32
2019-05-19 13:00:00 19 10 Oeste 28 Noroeste 0 -- -- 31
2019-05-19 12:00:00 18.1 12 Noroeste 26 Noroeste 0 -- -- 34
2019-05-19 11:00:00 15.7 16 Noroeste 30 Noroeste 0 -- -- 49
2019-05-19 10:00:00 13.4 19 Noroeste 33 Noroeste 0 -- -- 56
2019-05-19 09:00:00 11.7 17 Noroeste 34 Noroeste 0 -- -- 60
2019-05-19 08:00:00 10.8 22 Noroeste 37 Noroeste 0 -- -- 62
2019-05-19 07:00:00 10.5 20 Noroeste 37 Noroeste 0 -- -- 63
2019-05-19 06:00:00 10.9 23 Noroeste 41 Noroeste 0 -- -- 60
2019-05-19 05:00:00 11.3 26 Noroeste 38 Noroeste 0 -- -- 58
2019-05-19 04:00:00 11.2 16 Noroeste 33 Noroeste 0 -- -- 59
2019-05-19 03:00:00 11.6 22 Noroeste 35 Noroeste 0 -- -- 58
2019-05-19 02:00:00 12.2 21 Noroeste 35 Noroeste 0 -- -- 55
2019-05-19 01:00:00 12.7 23 Noroeste 34 Noroeste 0 -- -- 52
2019-05-19 00:00:00 13.7 22 Noroeste 36 Noroeste 0 -- -- 46
2019-05-18 23:00:00 14.4 18 Noroeste 31 Oeste 0 -- -- 40
2019-05-18 22:00:00 14.6 13 Oeste 29 Oeste 0 -- -- 39
2019-05-18 21:00:00 16.3 14 Oeste 33 Oeste 0 -- -- 36
2019-05-18 20:00:00 18 14 Noroeste 35 Oeste 0 -- -- 31
2019-05-18 19:00:00 19.1 14 Noroeste 30 Oeste 0 -- -- 30
2019-05-18 18:00:00 19.9 16 Noroeste 30 Oeste 0 -- -- 26
2019-05-18 17:00:00 19.9 15 Noroeste 37 Noroeste 0 -- -- 26
2019-05-18 16:00:00 19 18 Noroeste 32 Oeste 0 -- -- 28
2019-05-18 15:00:00 18.6 14 Noroeste 37 Oeste 0 -- -- 31
2019-05-18 14:00:00 17 17 Noroeste 39 Oeste 0 -- -- 36
2019-05-18 13:00:00 16.3 19 Noroeste 39 Noroeste 0 -- -- 37
2019-05-18 12:00:00 14.9 16 Noroeste 31 Noroeste 0 -- -- 42
2019-05-18 11:00:00 14 12 Noroeste 31 Noroeste 0 -- -- 44
2019-05-18 10:00:00 12 17 Noroeste 35 Noroeste 0 -- -- 51
2019-05-18 09:00:00 10.3 26 Noroeste 42 Noroeste 0 -- -- 54
2019-05-18 08:00:00 9.7 23 Noroeste 50 Noroeste 0 -- -- 57
2019-05-18 07:00:00 9.4 18 Norte 44 Norte 0 -- -- 58
2019-05-18 06:00:00 9.8 12 Norte 31 Norte 0 -- -- 58
2019-05-18 05:00:00 10.4 14 Noroeste 35 Norte 0 -- -- 61
2019-05-18 04:00:00 10.9 14 Noroeste 29 Noroeste 0 -- -- 60
2019-05-18 03:00:00 11.3 15 Noroeste 33 Noroeste 0 -- -- 59
2019-05-18 02:00:00 11.9 17 Noroeste 41 Noroeste 0 -- -- 56
2019-05-18 01:00:00 12.5 24 Noroeste 40 Noroeste 0 -- -- 54
2019-05-18 00:00:00 13.2 23 Noroeste 41 Noroeste 0 -- -- 53
2019-05-17 23:00:00 14.2 21 Noroeste 32 Noroeste 0 -- -- 48
2019-05-17 22:00:00 15.2 19 Noroeste 33 Noroeste 0 -- -- 42
2019-05-17 21:00:00 16.4 17 Noroeste 36 Noroeste 0 -- -- 40
2019-05-17 20:00:00 17.7 16 Noroeste 40 Oeste 0 -- -- 34
2019-05-17 19:00:00 19.3 17 Noroeste 36 Oeste 0 -- -- 33
2019-05-17 18:00:00 20.2 17 Oeste 40 Oeste 0 -- -- 30
2019-05-17 17:00:00 20.1 18 Noroeste 42 Noroeste 0 -- -- 30
2019-05-17 16:00:00 19.4 13 Noroeste 33 Sudoeste 0 -- -- 34
2019-05-17 15:00:00 18.5 13 Oeste 36 Noroeste 0 -- -- 37
2019-05-17 14:00:00 16.6 21 Noroeste 41 Noroeste 0 -- -- 42
2019-05-17 13:00:00 14.7 21 Noroeste 42 Noroeste 0 -- -- 47
2019-05-17 12:00:00 13.9 23 Noroeste 45 Noroeste 0 -- -- 50
2019-05-17 11:00:00 12.9 17 Oeste 41 Oeste 0 -- -- 53
2019-05-17 10:00:00 12.3 21 Oeste 37 Oeste 0 -- -- 53
2019-05-17 09:00:00 11.6 14 Oeste 31 Sudoeste 0 -- -- 54
2019-05-17 08:00:00 10.1 14 Oeste 32 Oeste 0 -- -- 59
2019-05-17 07:00:00 9.4 12 Oeste 32 Oeste 0 -- -- 61
2019-05-17 06:00:00 9.6 15 Oeste 30 Oeste 0 -- -- 61
2019-05-17 05:00:00 10.1 13 Noroeste 30 Noroeste 0 -- -- 62
2019-05-17 04:00:00 10.7 16 Noroeste 37 Noroeste 0 -- -- 60
2019-05-17 03:00:00 11.2 18 Noroeste 36 Oeste 0 -- -- 58
2019-05-17 02:00:00 11.8 17 Noroeste 45 Oeste 0 -- -- 59
2019-05-17 01:00:00 12.6 14 Oeste 41 Oeste 0 -- -- 58
2019-05-17 00:00:00 13.5 19 Noroeste 37 Noroeste 0 -- -- 55